Time;durP1;ratioP1;P1;durP2;ratioP2;P2;SDS_P1;SDS_P2;PMS_P1;PMS_P2;Temp;Humidity;BMP_temperature;BMP_pressure;BME280_temperature;BME280_humidity;BME280_pressure;Samples;Min_cycle;Max_cycle;Signal;HPM_P1;HPM_P2
2022/04/12 00:01:08;;;;;;;14.25;8.00;;;;;;;19.68;39.22;100996.41;5066925;28;20037;-53
2022/04/12 00:03:34;;;;;;;13.05;6.80;;;;;;;19.59;39.61;100987.91;5069698;28;20060;-52
2022/04/12 00:06:00;;;;;;;14.23;7.57;;;;;;;19.44;38.96;100983.91;5060430;28;20065;-54
2022/04/12 00:08:26;;;;;;;14.38;7.68;;;;;;;19.56;37.94;100997.34;5060534;28;20088;-57
2022/04/12 00:10:51;;;;;;;12.48;6.63;;;;;;;20.49;36.15;100986.69;5072651;28;20040;-55
2022/04/12 00:13:19;;;;;;;11.97;6.40;;;;;;;19.86;37.00;100979.81;5059655;28;20041;-56
2022/04/12 00:15:48;;;;;;;15.02;7.35;;;;;;;20.27;36.59;100970.44;5059346;28;20033;-54
2022/04/12 00:20:58;;;;;;;14.02;7.32;;;;;;;19.75;37.87;100970.75;5062949;28;20048;-56
2022/04/12 00:23:24;;;;;;;12.77;7.37;;;;;;;20.28;36.89;100962.06;5066518;28;20037;-52
2022/04/12 00:25:49;;;;;;;12.87;6.97;;;;;;;20.25;36.95;100953.59;5064819;28;20060;-55
2022/04/12 00:28:15;;;;;;;12.00;6.80;;;;;;;20.03;37.12;100943.63;5066691;28;20037;-56
2022/04/12 00:30:41;;;;;;;12.43;7.07;;;;;;;19.97;37.19;100926.50;5041936;28;20052;-53
2022/04/12 00:33:07;;;;;;;17.55;7.00;;;;;;;19.99;36.80;100928.94;5070506;28;20056;-51
2022/04/12 00:35:33;;;;;;;16.70;6.80;;;;;;;19.97;36.85;100931.09;5053851;28;20033;-52
2022/04/12 00:37:59;;;;;;;11.13;7.30;;;;;;;20.28;36.40;100936.78;5072627;28;20049;-53
2022/04/12 00:40:25;;;;;;;11.40;6.57;;;;;;;20.65;35.56;100943.34;5065117;28;20029;-50
2022/04/12 00:42:52;;;;;;;16.30;7.18;;;;;;;20.67;35.23;100939.28;5054190;28;20052;-55
2022/04/12 00:45:18;;;;;;;10.50;6.53;;;;;;;20.43;35.74;100953.22;5061053;28;20060;-53
2022/04/12 00:47:44;;;;;;;18.27;7.17;;;;;;;20.61;35.11;100956.63;5060018;28;20025;-56
2022/04/12 00:50:11;;;;;;;14.48;6.22;;;;;;;20.52;35.09;100955.44;5061461;28;20041;-53
2022/04/12 00:52:39;;;;;;;11.48;6.07;;;;;;;20.47;34.80;100959.78;5063764;28;20045;-49
2022/04/12 00:55:06;;;;;;;17.08;6.28;;;;;;;19.69;35.75;100960.06;5061317;28;20076;-51
2022/04/12 00:57:32;;;;;;;11.18;6.45;;;;;;;20.28;35.14;100962.06;5071806;28;20135;-52
2022/04/12 01:00:05;;;;;;;9.00;5.47;;;;;;;20.26;34.78;100963.38;5066362;28;20032;-51
2022/04/12 01:02:32;;;;;;;14.57;6.72;;;;;;;20.43;34.40;100958.66;5066010;28;20067;-53
2022/04/12 01:04:59;;;;;;;13.38;6.60;;;;;;;20.36;34.89;100960.78;5057941;28;20037;-54
2022/04/12 01:07:24;;;;;;;13.50;5.95;;;;;;;20.35;35.04;100961.84;5070734;28;20028;-54
2022/04/12 01:09:52;;;;;;;12.35;6.70;;;;;;;20.38;34.88;100966.75;5072629;28;20041;-54
2022/04/12 01:12:21;;;;;;;14.35;6.78;;;;;;;20.32;34.94;100973.25;5070101;28;20100;-55
2022/04/12 01:14:47;;;;;;;12.63;6.30;;;;;;;20.43;34.96;100966.00;5059680;28;20045;-55
2022/04/12 01:17:13;;;;;;;11.68;6.40;;;;;;;20.30;34.99;100975.41;5072718;28;20033;-54
2022/04/12 01:19:38;;;;;;;12.55;6.38;;;;;;;20.29;35.16;100968.28;5069984;28;20033;-51
2022/04/12 01:22:08;;;;;;;11.23;5.93;;;;;;;20.41;35.14;100960.81;5065916;28;20052;-54
2022/04/12 01:24:34;;;;;;;9.93;5.85;;;;;;;20.37;35.03;100956.97;5069309;28;20178;-54
2022/04/12 01:27:00;;;;;;;17.58;6.05;;;;;;;20.31;35.25;100958.03;5068952;28;20045;-54
2022/04/12 01:29:31;;;;;;;14.40;6.22;;;;;;;20.24;35.23;100949.25;5060377;28;20037;-54
2022/04/12 01:31:56;;;;;;;12.02;6.20;;;;;;;20.10;35.71;100949.69;5058463;28;20040;-56
2022/04/12 01:34:21;;;;;;;9.83;6.00;;;;;;;19.88;36.14;100953.25;5069417;28;20042;-51
2022/04/12 01:36:47;;;;;;;8.95;6.28;;;;;;;19.97;36.41;100950.09;5068767;28;20134;-55
2022/04/12 01:39:13;;;;;;;10.83;5.70;;;;;;;19.82;36.47;100948.81;5067667;28;20032;-56
2022/04/12 01:41:38;;;;;;;15.77;6.53;;;;;;;19.89;36.30;100954.03;5058997;28;20029;-53
2022/04/12 01:44:04;;;;;;;15.87;6.57;;;;;;;19.86;36.06;100947.25;5067030;28;20076;-56
2022/04/12 01:46:30;;;;;;;9.55;5.90;;;;;;;19.85;36.17;100948.31;5051751;28;20041;-56
2022/04/12 01:48:55;;;;;;;10.87;6.40;;;;;;;19.86;36.02;100943.72;5072823;28;20037;-53
2022/04/12 01:51:20;;;;;;;12.47;6.50;;;;;;;19.84;35.85;100943.97;5063637;28;20044;-55
2022/04/12 01:53:46;;;;;;;12.45;6.45;;;;;;;19.74;36.08;100941.13;5071294;28;20052;-56
2022/04/12 01:56:12;;;;;;;14.30;5.73;;;;;;;19.67;36.52;100938.63;5063797;28;20101;-53
2022/04/12 01:58:38;;;;;;;14.70;6.33;;;;;;;19.65;36.40;100937.25;5075173;28;20044;-53
2022/04/12 02:01:04;;;;;;;;;;;;;;;19.62;36.24;100933.97;5064431;28;20040;-51
2022/04/12 02:03:29;;;;;;;11.97;5.27;;;;;;;19.70;35.90;100938.09;5074715;28;19984;-52
2022/04/12 02:05:55;;;;;;;12.63;6.10;;;;;;;19.57;36.59;100930.38;5062362;28;20073;-51
2022/04/12 02:08:21;;;;;;;10.90;5.50;;;;;;;19.58;36.20;100927.41;5069164;28;20057;-55
2022/04/12 02:10:47;;;;;;;10.60;5.72;;;;;;;19.62;36.41;100916.88;5069143;28;20068;-51
2022/04/12 02:13:13;;;;;;;13.13;5.80;;;;;;;19.62;36.18;100906.84;5064960;28;20045;-53
2022/04/12 02:15:39;;;;;;;10.65;5.45;;;;;;;19.57;36.24;100914.91;5061598;28;20043;-50
2022/04/12 02:18:04;;;;;;;10.70;5.67;;;;;;;19.55;36.09;100918.97;5062640;28;20037;-49
2022/04/12 02:20:30;;;;;;;10.02;5.97;;;;;;;19.45;36.48;100911.53;5063185;28;20045;-52
2022/04/12 02:22:56;;;;;;;10.50;5.67;;;;;;;19.54;36.26;100923.56;5068678;28;20047;-54
2022/04/12 02:25:21;;;;;;;13.75;5.90;;;;;;;19.55;36.49;100922.47;5064595;28;20332;-53
2022/04/12 02:27:48;;;;;;;10.32;5.60;;;;;;;19.51;36.35;100920.56;5073438;28;20024;-52
2022/04/12 02:30:13;;;;;;;11.07;4.82;;;;;;;19.53;36.03;100929.25;5068449;28;20044;-54
2022/04/12 02:32:39;;;;;;;10.40;5.37;;;;;;;19.52;35.85;100930.31;5064723;28;20109;-52
2022/04/12 02:35:05;;;;;;;13.45;5.05;;;;;;;19.51;35.97;100934.91;5064762;28;20037;-53
2022/04/12 02:37:31;;;;;;;;;;;;;;;19.63;35.97;100940.19;5063857;28;20052;-54
2022/04/12 02:39:57;;;;;;;9.77;5.10;;;;;;;19.52;35.88;100933.03;5067854;28;19920;-54
2022/04/12 02:42:22;;;;;;;11.67;5.13;;;;;;;19.51;35.82;100924.06;5061098;28;20051;-54
2022/04/12 02:44:48;;;;;;;11.77;6.03;;;;;;;19.45;36.08;100933.22;5067817;28;20061;-54
2022/04/12 02:47:13;;;;;;;12.93;6.37;;;;;;;19.40;36.40;100925.84;5067645;28;20052;-53
2022/04/12 02:49:38;;;;;;;11.27;6.00;;;;;;;18.98;36.56;100923.63;5066665;28;20059;-51
2022/04/12 02:52:04;;;;;;;9.27;5.20;;;;;;;19.27;36.14;100924.31;5068025;28;20035;-54
2022/04/12 02:54:30;;;;;;;10.32;5.35;;;;;;;19.22;36.47;100924.25;5061222;28;20109;-50
2022/04/12 02:56:56;;;;;;;9.03;4.97;;;;;;;19.16;36.45;100914.44;5067662;28;20116;-53
2022/04/12 02:59:21;;;;;;;8.63;4.97;;;;;;;19.14;36.56;100908.41;5064584;28;20286;-54
2022/04/12 03:01:46;;;;;;;12.17;5.73;;;;;;;19.04;36.65;100901.81;5072086;28;20041;-53
2022/04/12 03:04:11;;;;;;;14.40;5.97;;;;;;;19.47;35.98;100904.75;5074054;28;20037;-52
2022/04/12 03:06:37;;;;;;;9.57;5.55;;;;;;;19.37;36.07;100893.81;5067681;28;20041;-49
2022/04/12 03:09:03;;;;;;;12.37;5.83;;;;;;;19.02;36.86;100884.16;5065893;28;20056;-55
2022/04/12 03:11:29;;;;;;;11.38;5.47;;;;;;;19.03;36.95;100874.94;5063671;28;20097;-55
2022/04/12 03:13:54;;;;;;;11.23;5.43;;;;;;;19.10;36.75;100863.91;5067540;28;20033;-53
2022/04/12 03:16:20;;;;;;;11.57;5.80;;;;;;;18.83;37.27;100870.06;5061537;28;20043;-55
2022/04/12 03:18:45;;;;;;;12.07;5.67;;;;;;;19.05;37.01;100878.25;5061611;28;20119;-52
2022/04/12 03:21:11;;;;;;;11.57;5.70;;;;;;;19.16;37.17;100881.91;5063253;28;20033;-52
2022/04/12 03:23:36;;;;;;;10.50;4.97;;;;;;;19.08;37.14;100880.44;5072231;28;20061;-52
2022/04/12 03:26:03;;;;;;;12.98;6.07;;;;;;;19.08;37.37;100885.88;5063617;28;20033;-54
2022/04/12 03:28:29;;;;;;;16.38;5.55;;;;;;;19.10;37.21;100888.31;5064958;28;20029;-54
2022/04/12 03:30:55;;;;;;;14.23;6.13;;;;;;;19.04;37.10;100884.75;5056643;28;20037;-53
2022/04/12 03:33:20;;;;;;;14.73;5.85;;;;;;;18.96;36.95;100883.25;5067329;28;20048;-53
2022/04/12 03:35:46;;;;;;;9.10;5.13;;;;;;;19.02;37.24;100874.13;5056095;28;20056;-49
2022/04/12 03:38:14;;;;;;;15.33;5.80;;;;;;;19.03;37.08;100864.94;5066889;28;20059;-55
2022/04/12 03:40:41;;;;;;;10.13;5.47;;;;;;;18.97;36.96;100865.91;5073417;28;20071;-51
2022/04/12 03:43:06;;;;;;;12.25;5.38;;;;;;;18.94;37.30;100863.72;5066534;28;20036;-53
2022/04/12 03:45:33;;;;;;;14.37;5.83;;;;;;;18.87;37.30;100868.47;5066434;28;20125;-52
2022/04/12 03:47:59;;;;;;;11.15;6.15;;;;;;;18.90;37.47;100862.56;5070756;28;20025;-53
2022/04/12 03:50:25;;;;;;;12.07;5.87;;;;;;;18.74;37.54;100867.78;5063653;28;20045;-52
2022/04/12 03:52:52;;;;;;;12.82;5.38;;;;;;;18.82;37.25;100863.00;5065490;28;20297;-54
2022/04/12 03:55:30;;;;;;;14.05;6.65;;;;;;;18.61;38.06;100865.41;5057151;28;20044;-55
2022/04/12 03:58:00;;;;;;;14.35;6.15;;;;;;;18.80;37.55;100874.09;5060251;28;20045;-51
2022/04/12 04:00:28;;;;;;;11.30;6.03;;;;;;;18.91;37.62;100864.19;5060480;28;20038;-51
2022/04/12 04:02:55;;;;;;;13.57;5.90;;;;;;;18.81;37.71;100869.50;5063626;28;20064;-54
2022/04/12 04:05:21;;;;;;;12.35;5.75;;;;;;;18.81;37.46;100864.06;5055823;28;20563;-53
2022/04/12 04:07:47;;;;;;;12.50;6.43;;;;;;;18.88;37.30;100859.28;5062105;28;20025;-51
2022/04/12 04:10:12;;;;;;;11.80;5.77;;;;;;;18.87;37.43;100857.63;5065366;28;20043;-51
2022/04/12 04:12:38;;;;;;;16.10;5.70;;;;;;;18.72;37.83;100866.38;5043021;28;20040;-51
2022/04/12 04:15:05;;;;;;;14.47;7.30;;;;;;;18.92;37.57;100860.44;5061067;28;20037;-56
2022/04/12 04:17:31;;;;;;;12.13;6.00;;;;;;;18.80;37.62;100855.13;5060128;28;20041;-52
2022/04/12 04:19:57;;;;;;;17.60;6.95;;;;;;;18.82;37.59;100854.88;5069418;28;20052;-53
2022/04/12 04:22:22;;;;;;;10.83;6.00;;;;;;;18.99;37.43;100839.41;5060334;28;20200;-52
2022/04/12 04:24:48;;;;;;;12.65;5.88;;;;;;;18.88;37.61;100838.44;5065842;28;20037;-54
2022/04/12 04:27:15;;;;;;;11.33;5.60;;;;;;;18.88;37.69;100832.19;5066109;28;20045;-52
2022/04/12 04:29:41;;;;;;;14.75;5.93;;;;;;;19.09;37.50;100840.59;5062702;28;20267;-53
2022/04/12 04:32:07;;;;;;;12.20;7.03;;;;;;;19.22;37.42;100848.34;5060572;28;20041;-53
2022/04/12 04:34:33;;;;;;;18.15;6.43;;;;;;;19.09;37.57;100860.41;5057031;28;20270;-53
2022/04/12 04:36:59;;;;;;;13.77;6.80;;;;;;;19.06;37.61;100860.91;5060516;28;20069;-56
2022/04/12 04:39:24;;;;;;;11.20;6.15;;;;;;;19.02;37.84;100863.31;5072214;28;20048;-53
2022/04/12 04:41:50;;;;;;;13.77;6.00;;;;;;;19.06;37.61;100872.56;5062460;28;20037;-54
2022/04/12 04:44:16;;;;;;;13.67;6.80;;;;;;;18.95;37.70;100870.78;5062549;28;20108;-52
2022/04/12 04:46:42;;;;;;;12.48;6.43;;;;;;;18.92;37.47;100877.50;5071376;28;20064;-54
2022/04/12 04:49:08;;;;;;;10.27;5.37;;;;;;;19.06;37.50;100883.41;5066583;28;20094;-56
2022/04/12 04:51:35;;;;;;;11.17;6.37;;;;;;;18.91;37.95;100881.28;5067172;28;20029;-54
2022/04/12 04:54:01;;;;;;;12.27;5.75;;;;;;;19.05;37.68;100883.66;5072470;28;20030;-56
2022/04/12 04:56:27;;;;;;;13.50;5.93;;;;;;;19.03;37.90;100877.66;5067882;28;20072;-56
2022/04/12 04:58:54;;;;;;;12.90;6.13;;;;;;;19.02;37.83;100882.28;5065420;28;20093;-51
2022/04/12 05:01:20;;;;;;;13.18;6.75;;;;;;;19.00;37.83;100894.41;5067019;28;20061;-54
2022/04/12 05:03:47;;;;;;;13.45;6.20;;;;;;;19.03;37.79;100889.31;5067164;28;20025;-54
2022/04/12 05:06:13;;;;;;;;;;;;;;;19.00;37.99;100889.84;5070029;28;20075;-52
2022/04/12 05:08:39;;;;;;;11.45;5.68;;;;;;;19.18;37.68;100896.03;5063857;28;19928;-56
2022/04/12 05:11:04;;;;;;;14.43;6.53;;;;;;;19.13;37.91;100894.06;5069491;28;20049;-55
2022/04/12 05:13:30;;;;;;;13.30;6.95;;;;;;;18.84;38.46;100890.66;5073699;28;20044;-53
2022/04/12 05:15:55;;;;;;;12.10;5.87;;;;;;;18.55;38.78;100894.31;5071859;28;20052;-56
2022/04/12 05:18:21;;;;;;;12.70;6.87;;;;;;;19.01;38.28;100898.78;5071808;28;20060;-56
2022/04/12 05:20:47;;;;;;;11.53;6.73;;;;;;;18.97;38.27;100895.72;5063423;28;20049;-54
2022/04/12 05:23:12;;;;;;;16.98;7.28;;;;;;;17.91;40.65;100895.41;5063754;28;20052;-53
2022/04/12 05:25:38;;;;;;;16.07;7.00;;;;;;;17.81;41.07;100887.09;5066562;28;20052;-55
2022/04/12 05:28:03;;;;;;;16.93;6.60;;;;;;;18.78;39.47;100877.03;5070813;28;20053;-53
2022/04/12 05:30:29;;;;;;;13.32;6.55;;;;;;;18.99;38.86;100874.66;5069338;28;20037;-52
2022/04/12 05:32:54;;;;;;;14.40;6.63;;;;;;;18.88;39.04;100870.94;5069757;28;20033;-57
2022/04/12 05:35:20;;;;;;;15.07;6.07;;;;;;;18.92;38.82;100882.91;5068850;28;20048;-55
2022/04/12 05:37:50;;;;;;;16.23;7.15;;;;;;;18.88;38.87;100883.66;5072250;28;20038;-54
2022/04/12 05:40:18;;;;;;;17.80;6.22;;;;;;;18.89;38.84;100883.44;5075059;28;20112;-54
2022/04/12 05:42:44;;;;;;;10.48;6.22;;;;;;;18.75;38.85;100882.97;5075964;28;20075;-55
2022/04/12 05:45:11;;;;;;;17.20;6.90;;;;;;;18.96;38.74;100896.81;5050387;28;20421;-56
2022/04/12 05:47:51;;;;;;;14.80;6.63;;;;;;;18.95;39.04;100883.50;5044823;28;20049;-55
2022/04/12 05:50:18;;;;;;;13.40;6.85;;;;;;;18.91;38.99;100880.44;5068306;28;20033;-55
2022/04/12 05:52:44;;;;;;;14.38;7.57;;;;;;;18.83;39.31;100870.88;5061869;28;20572;-54
2022/04/12 05:55:12;;;;;;;14.38;6.38;;;;;;;18.82;39.11;100871.13;5066445;28;20049;-53
2022/04/12 05:57:47;;;;;;;12.80;6.85;;;;;;;18.89;39.34;100874.47;5059323;28;20041;-55
2022/04/12 06:00:14;;;;;;;19.10;7.15;;;;;;;19.07;39.33;100878.81;5060601;28;20032;-55
2022/04/12 06:02:40;;;;;;;13.55;7.32;;;;;;;19.09;39.30;100873.13;5056965;28;20049;-55
2022/04/12 06:05:05;;;;;;;15.17;6.93;;;;;;;19.05;39.44;100878.25;5060425;28;20056;-53
2022/04/12 06:07:32;;;;;;;13.65;7.88;;;;;;;19.18;39.18;100890.59;5059909;28;20034;-52
2022/04/12 06:10:02;;;;;;;14.07;7.00;;;;;;;19.21;39.06;100895.53;5064843;28;20044;-51
2022/04/12 06:12:28;;;;;;;14.77;7.53;;;;;;;19.19;39.15;100900.38;5045412;28;20057;-51
2022/04/12 06:14:55;;;;;;;13.35;6.13;;;;;;;19.33;38.71;100896.19;5048925;28;20060;-50
2022/04/12 06:17:21;;;;;;;12.80;6.55;;;;;;;19.49;38.23;100890.97;5044961;28;20030;-55
2022/04/12 06:19:47;;;;;;;14.07;7.07;;;;;;;19.42;38.40;100901.19;5052542;28;20108;-52
2022/04/12 06:22:12;;;;;;;15.90;7.37;;;;;;;19.66;38.39;100900.91;5043143;28;20057;-54
2022/04/12 06:24:39;;;;;;;12.93;6.97;;;;;;;19.72;38.02;100902.59;5046502;28;20093;-53
2022/04/12 06:27:04;;;;;;;15.73;6.18;;;;;;;19.97;37.69;100895.81;5046879;28;20090;-52
2022/04/12 06:29:30;;;;;;;14.40;7.22;;;;;;;20.01;37.94;100902.34;5061573;28;20076;-50
2022/04/12 06:31:55;;;;;;;11.77;6.17;;;;;;;19.88;38.02;100898.13;5073583;28;20092;-51
2022/04/12 06:34:20;;;;;;;12.93;7.47;;;;;;;19.95;38.09;100889.81;5064649;28;20033;-50
2022/04/12 06:36:46;;;;;;;12.27;6.70;;;;;;;20.03;37.91;100894.75;5052625;28;20032;-51
2022/04/12 06:39:11;;;;;;;17.03;7.30;;;;;;;20.03;37.76;100892.88;5047862;28;20128;-55
2022/04/12 06:41:36;;;;;;;13.53;6.77;;;;;;;20.15;37.76;100895.44;5051542;28;20104;-50
2022/04/12 06:44:02;;;;;;;16.77;6.70;;;;;;;20.18;37.98;100900.34;5053182;28;20061;-54
2022/04/12 06:46:27;;;;;;;11.77;6.63;;;;;;;20.21;37.74;100896.31;5052411;28;20040;-55
2022/04/12 06:48:53;;;;;;;15.83;6.40;;;;;;;20.26;37.99;100898.22;5047235;28;20428;-53
2022/04/12 06:51:19;;;;;;;14.93;8.05;;;;;;;20.26;38.07;100895.50;5053290;28;20116;-52
2022/04/12 06:53:44;;;;;;;12.23;6.78;;;;;;;20.06;38.63;100886.09;5053858;28;20044;-53
2022/04/12 06:56:10;;;;;;;11.00;6.88;;;;;;;20.43;37.70;100892.66;5049885;28;20030;-54
2022/04/12 06:58:36;;;;;;;17.40;7.53;;;;;;;20.59;38.06;100890.88;5045899;28;20057;-53
2022/04/12 07:01:01;;;;;;;15.80;7.77;;;;;;;20.72;37.86;100884.97;5062331;28;20045;-54
2022/04/12 07:03:27;;;;;;;15.70;7.60;;;;;;;20.71;37.68;100887.94;5067503;28;20176;-56
2022/04/12 07:05:55;;;;;;;18.67;7.60;;;;;;;20.91;37.66;100877.22;5044067;28;20072;-50
2022/04/12 07:08:22;;;;;;;13.20;7.32;;;;;;;20.90;37.92;100862.00;5067280;28;20065;-53
2022/04/12 07:10:48;;;;;;;14.25;6.88;;;;;;;20.72;37.93;100851.56;5066092;28;20275;-53
2022/04/12 07:13:14;;;;;;;16.23;6.60;;;;;;;20.35;38.76;100847.78;5060351;28;20032;-54
2022/04/12 07:15:39;;;;;;;18.13;8.30;;;;;;;20.77;37.68;100859.72;5063331;28;20064;-57
2022/04/12 07:18:05;;;;;;;11.57;6.73;;;;;;;21.01;37.36;100871.03;5061396;28;20048;-54
2022/04/12 07:20:30;;;;;;;18.60;7.65;;;;;;;20.85;37.44;100880.19;5064922;28;20040;-55
2022/04/12 07:22:56;;;;;;;15.13;6.83;;;;;;;20.15;38.55;100876.44;5066445;28;20037;-54
2022/04/12 07:25:21;;;;;;;13.82;7.00;;;;;;;20.84;37.95;100879.34;5057775;28;20073;-54
2022/04/12 07:27:47;;;;;;;13.20;6.03;;;;;;;21.20;37.61;100878.69;5070608;28;20036;-54
2022/04/12 07:30:13;;;;;;;14.73;6.22;;;;;;;21.22;37.75;100870.28;5072675;28;20029;-54
2022/04/12 07:32:38;;;;;;;11.50;6.17;;;;;;;21.07;37.61;100869.13;5066816;28;20034;-55
2022/04/12 07:35:05;;;;;;;10.50;6.03;;;;;;;21.41;36.87;100867.88;5062312;28;20267;-56
2022/04/12 07:37:31;;;;;;;14.90;6.13;;;;;;;21.37;36.58;100870.34;5061057;28;20037;-53
2022/04/12 07:39:56;;;;;;;12.53;6.50;;;;;;;20.25;38.23;100866.72;5056416;28;20283;-52
2022/04/12 07:42:23;;;;;;;12.63;6.23;;;;;;;21.86;36.10;100865.56;5064847;28;20082;-53
2022/04/12 07:44:49;;;;;;;10.63;6.50;;;;;;;21.66;36.48;100864.44;5072765;28;20079;-54
2022/04/12 07:47:14;;;;;;;13.25;6.32;;;;;;;21.62;36.39;100861.41;5067469;28;20313;-54
2022/04/12 07:49:40;;;;;;;14.83;7.30;;;;;;;21.82;36.47;100856.31;5059314;28;20045;-53
2022/04/12 07:52:06;;;;;;;12.50;6.50;;;;;;;21.45;36.62;100863.53;5066811;28;20288;-55
2022/04/12 07:54:31;;;;;;;13.07;6.68;;;;;;;22.18;36.04;100865.28;5063561;28;20060;-53
2022/04/12 07:56:57;;;;;;;11.80;6.10;;;;;;;21.88;36.26;100866.91;5051747;28;20098;-54
2022/04/12 07:59:22;;;;;;;14.83;6.10;;;;;;;21.94;36.48;100870.44;5043830;28;20041;-56
2022/04/12 08:01:48;;;;;;;13.00;5.70;;;;;;;22.23;36.38;100871.81;5053707;28;20047;-52
2022/04/12 08:04:13;;;;;;;10.85;6.53;;;;;;;22.44;35.76;100878.88;5052244;28;20048;-56
2022/04/12 08:06:39;;;;;;;11.77;6.77;;;;;;;22.74;35.66;100873.69;5064396;28;20045;-56
2022/04/12 08:09:04;;;;;;;10.32;6.35;;;;;;;22.97;35.09;100874.94;5066288;28;20216;-53
2022/04/12 08:11:31;;;;;;;14.00;6.40;;;;;;;22.77;35.91;100876.66;5066112;28;20068;-55
2022/04/12 08:13:57;;;;;;;11.03;6.43;;;;;;;22.96;36.03;100886.16;5049870;28;20033;-53
2022/04/12 08:16:23;;;;;;;12.70;5.97;;;;;;;23.15;35.69;100875.44;5073133;28;20266;-54
2022/04/12 08:18:49;;;;;;;13.90;6.65;;;;;;;23.36;35.65;100875.38;5066784;28;20052;-52
2022/04/12 08:21:28;;;;;;;18.02;6.80;;;;;;;23.23;35.34;100874.84;5062604;28;20043;-55
2022/04/12 08:23:55;;;;;;;13.47;6.73;;;;;;;24.04;34.70;100868.38;5058450;28;20040;-55
2022/04/12 08:26:21;;;;;;;16.40;6.90;;;;;;;23.95;34.77;100873.63;5074441;28;20266;-55
2022/04/12 08:28:46;;;;;;;12.67;6.63;;;;;;;23.48;35.62;100879.38;5073683;28;20312;-57
2022/04/12 08:31:12;;;;;;;10.20;6.38;;;;;;;22.81;35.99;100870.63;5076524;28;20044;-55
2022/04/12 08:33:38;;;;;;;10.52;6.15;;;;;;;23.76;35.47;100862.56;5068102;28;20025;-55
2022/04/12 08:36:04;;;;;;;9.95;6.55;;;;;;;23.82;35.01;100866.88;5058940;28;20101;-54
2022/04/12 08:38:30;;;;;;;10.93;5.88;;;;;;;22.58;36.29;100870.97;5052702;28;20063;-54
2022/04/12 08:40:56;;;;;;;12.15;6.82;;;;;;;22.48;36.97;100884.63;5064392;28;20049;-55
2022/04/12 08:43:23;;;;;;;12.75;7.20;;;;;;;23.86;35.00;100884.31;5066873;28;20045;-55
2022/04/12 08:45:49;;;;;;;11.87;6.43;;;;;;;23.34;35.51;100878.38;5069260;28;20037;-53
2022/04/12 08:48:15;;;;;;;18.40;6.90;;;;;;;23.72;35.05;100877.88;5068615;28;20368;-51
2022/04/12 08:50:41;;;;;;;14.02;6.40;;;;;;;23.66;34.96;100879.84;5074559;28;20286;-56
2022/04/12 08:53:07;;;;;;;17.95;6.68;;;;;;;23.70;35.05;100874.59;5072368;28;20120;-54
2022/04/12 08:55:33;;;;;;;14.52;7.15;;;;;;;24.71;34.30;100867.75;5065701;28;20044;-56
2022/04/12 08:57:59;;;;;;;13.10;6.20;;;;;;;24.74;34.55;100864.41;5061789;28;20064;-53
2022/04/12 09:00:24;;;;;;;11.90;6.67;;;;;;;25.32;34.05;100846.19;5062020;28;20306;-54
2022/04/12 09:02:58;;;;;;;9.20;6.15;;;;;;;25.04;34.19;100840.56;5064090;28;20128;-50
2022/04/12 09:05:25;;;;;;;10.90;6.83;;;;;;;25.80;33.38;100838.13;5058095;28;20234;-50
2022/04/12 09:07:51;;;;;;;15.23;5.77;;;;;;;26.23;32.91;100835.25;5066116;28;20262;-54
2022/04/12 09:10:19;;;;;;;13.43;6.45;;;;;;;26.67;32.38;100837.72;5053219;28;20299;-50
2022/04/12 09:12:45;;;;;;;11.30;5.87;;;;;;;26.57;32.38;100849.69;5052130;28;20060;-56
2022/04/12 09:15:15;;;;;;;14.45;6.43;;;;;;;26.63;31.45;100859.44;5048103;28;20033;-54
2022/04/12 09:17:44;;;;;;;9.57;5.87;;;;;;;27.15;30.38;100858.41;5072661;28;20033;-56
2022/04/12 09:20:16;;;;;;;12.23;6.00;;;;;;;27.83;30.32;100841.25;5075443;28;20060;-55
2022/04/12 09:22:42;;;;;;;12.97;6.23;;;;;;;28.91;29.19;100849.34;5068940;28;20064;-51
2022/04/12 09:25:10;;;;;;;12.30;6.17;;;;;;;29.52;28.77;100852.53;5061373;28;20033;-55
2022/04/12 09:27:37;;;;;;;12.77;5.97;;;;;;;30.04;27.97;100855.25;5074715;28;20040;-53
2022/04/12 09:30:06;;;;;;;11.87;6.13;;;;;;;30.05;27.37;100856.06;5069323;28;20096;-54
2022/04/12 09:32:49;;;;;;;10.37;5.27;;;;;;;31.06;26.67;100853.84;5066626;28;20088;-56
2022/04/12 09:35:15;;;;;;;9.00;4.93;;;;;;;31.26;25.63;100857.78;5056630;28;20101;-54
2022/04/12 09:37:45;;;;;;;8.18;5.15;;;;;;;31.41;25.74;100852.81;5073120;28;20044;-57
2022/04/12 09:40:16;;;;;;;9.93;5.57;;;;;;;31.73;25.16;100853.97;5068404;28;20029;-54
2022/04/12 09:42:52;;;;;;;10.87;5.43;;;;;;;32.71;24.40;100859.25;5064688;28;20044;-55
2022/04/12 09:45:30;;;;;;;11.35;4.88;;;;;;;33.72;23.86;100856.69;5074613;28;20045;-54
2022/04/12 09:48:01;;;;;;;9.03;4.90;;;;;;;33.49;23.33;100855.66;5062724;28;20037;-55
2022/04/12 09:50:28;;;;;;;11.00;5.17;;;;;;;33.39;23.45;100856.91;5071780;28;20036;-56
2022/04/12 09:52:57;;;;;;;10.67;5.03;;;;;;;32.44;23.88;100848.50;5064397;28;20033;-56
2022/04/12 09:55:46;;;;;;;11.43;4.23;;;;;;;33.06;23.38;100841.34;5070045;28;20052;-56
2022/04/12 09:58:14;;;;;;;8.40;4.13;;;;;;;33.49;22.81;100839.03;5051010;28;20061;-53
2022/04/12 10:00:41;;;;;;;9.73;4.40;;;;;;;34.63;22.57;100836.84;5062427;28;20100;-54
2022/04/12 10:03:09;;;;;;;8.80;4.83;;;;;;;34.91;22.30;100837.81;5062421;28;20060;-54
2022/04/12 10:05:35;;;;;;;9.02;4.05;;;;;;;35.64;21.37;100840.97;5052337;28;20096;-58
2022/04/12 10:08:03;;;;;;;7.22;4.28;;;;;;;35.76;21.27;100848.34;5071016;28;20048;-54
2022/04/12 10:10:29;;;;;;;9.77;4.45;;;;;;;35.81;21.11;100850.81;5070158;28;20084;-56
2022/04/12 10:12:56;;;;;;;9.07;4.78;;;;;;;36.79;20.62;100846.84;5068106;28;20041;-56
2022/04/12 10:15:23;;;;;;;11.32;4.35;;;;;;;35.63;21.02;100844.09;5068803;28;20033;-53
2022/04/12 10:17:49;;;;;;;7.38;4.00;;;;;;;34.57;21.54;100852.97;5070789;28;20064;-57
2022/04/12 10:20:18;;;;;;;62.60;39.67;;;;;;;34.68;21.58;100850.44;5074716;28;20052;-48
2022/04/12 10:22:43;;;;;;;75.97;45.75;;;;;;;34.56;21.80;100851.34;5065897;28;20028;-50
2022/04/12 10:25:11;;;;;;;8.02;4.90;;;;;;;34.40;22.18;100836.63;5056956;28;20060;-53
2022/04/12 10:27:37;;;;;;;23.13;13.60;;;;;;;35.43;21.24;100825.47;5052813;28;20026;-50
2022/04/12 10:30:15;;;;;;;79.28;46.47;;;;;;;36.40;21.05;100822.78;5047852;28;20033;-54
2022/04/12 10:33:00;;;;;;;35.55;19.73;;;;;;;35.91;20.98;100810.47;5047220;28;20038;-51
2022/04/12 10:35:25;;;;;;;199.93;124.78;;;;;;;36.83;20.46;100819.06;5050518;28;20036;-53
2022/04/12 10:37:54;;;;;;;149.68;93.25;;;;;;;37.13;20.01;100812.69;5051843;28;20037;-51
2022/04/12 10:40:19;;;;;;;160.40;91.45;;;;;;;37.52;19.82;100817.16;5042752;28;20040;-47
2022/04/12 10:42:45;;;;;;;260.92;155.68;;;;;;;38.07;18.99;100810.91;5040554;28;20057;-51
2022/04/12 10:45:10;;;;;;;303.55;170.65;;;;;;;37.58;19.31;100802.47;5051753;28;20053;-50
2022/04/12 10:47:43;;;;;;;192.35;105.43;;;;;;;37.07;19.67;100805.84;5052932;28;20033;-51
2022/04/12 10:50:14;;;;;;;246.05;122.65;;;;;;;36.87;20.10;100803.19;5048254;28;20048;-47
2022/04/12 10:52:51;;;;;;;225.85;111.78;;;;;;;36.21;20.63;100797.81;5046467;28;20527;-47
2022/04/12 10:55:19;;;;;;;80.30;39.40;;;;;;;35.80;21.08;100790.78;5057807;28;20045;-51
2022/04/12 10:57:46;;;;;;;106.18;53.00;;;;;;;35.54;21.32;100800.66;5044703;28;20047;-51
2022/04/12 11:00:16;;;;;;;68.53;34.95;;;;;;;35.45;21.40;100798.09;5047400;28;20042;-53
2022/04/12 11:02:54;;;;;;;93.00;42.92;;;;;;;35.01;21.85;100788.06;5046862;28;20121;-47
2022/04/12 11:05:40;;;;;;;53.25;27.15;;;;;;;34.79;22.10;100772.09;5036452;28;20088;-47
2022/04/12 11:08:06;;;;;;;18.55;9.80;;;;;;;33.87;22.63;100777.47;5043915;28;20060;-54
2022/04/12 11:10:31;;;;;;;11.37;5.40;;;;;;;34.85;22.34;100773.44;5039906;28;20037;-51
2022/04/12 11:13:10;;;;;;;48.95;21.90;;;;;;;35.92;21.47;100772.28;5040559;28;20053;-54
2022/04/12 11:15:37;;;;;;;22.75;12.02;;;;;;;36.45;20.53;100775.16;5045849;28;20034;-53
2022/04/12 11:18:05;;;;;;;47.83;25.40;;;;;;;37.49;20.21;100776.88;5053115;28;20033;-53